createdAt,value
2023-03-19T00:02:16.633Z,6.40
2023-03-19T00:04:45.580Z,6.30
2023-03-19T00:07:13.397Z,6.20
2023-03-19T00:09:40.176Z,6.20
2023-03-19T00:12:07.499Z,6.20
2023-03-19T00:14:34.471Z,6.20
2023-03-19T00:17:01.264Z,6.10
2023-03-19T00:19:28.150Z,6.10
2023-03-19T00:21:55.041Z,6.10
2023-03-19T00:24:21.857Z,6.10
2023-03-19T00:26:48.582Z,6.00
2023-03-19T00:29:15.959Z,6.00
2023-03-19T00:31:43.075Z,6.00
2023-03-19T00:34:10.231Z,6.00
2023-03-19T00:36:37.351Z,6.00
2023-03-19T00:39:04.568Z,6.00
2023-03-19T00:41:31.477Z,6.00
2023-03-19T00:43:58.767Z,5.90
2023-03-19T00:46:26.389Z,5.90
2023-03-19T00:48:55.538Z,5.90
2023-03-19T00:51:24.031Z,5.90
2023-03-19T00:53:51.864Z,5.90
2023-03-19T00:56:19.639Z,5.90
2023-03-19T00:58:46.774Z,5.80
2023-03-19T01:01:16.328Z,5.80
2023-03-19T01:03:45.328Z,5.80
2023-03-19T01:06:12.342Z,5.70
2023-03-19T01:08:39.151Z,5.70
2023-03-19T01:11:09.257Z,5.70
2023-03-19T01:13:36.291Z,5.60
2023-03-19T01:16:03.435Z,5.60
2023-03-19T01:18:31.294Z,5.70
2023-03-19T01:20:57.980Z,5.60
2023-03-19T01:23:24.839Z,5.60
2023-03-19T01:25:52.199Z,5.60
2023-03-19T01:28:19.344Z,5.60
2023-03-19T01:30:46.366Z,5.60
2023-03-19T01:33:13.184Z,5.60
2023-03-19T01:35:40.011Z,5.60
2023-03-19T01:38:07.867Z,5.60
2023-03-19T01:40:34.778Z,5.50
2023-03-19T01:43:22.731Z,5.50
2023-03-19T01:45:55.668Z,4.80
2023-03-19T01:48:47.934Z,5.40
2023-03-19T01:51:17.707Z,5.40
2023-03-19T01:53:49.747Z,5.40
2023-03-19T01:56:23.524Z,5.30
2023-03-19T01:58:53.517Z,5.30
2023-03-19T02:01:20.607Z,5.30
2023-03-19T02:03:48.090Z,5.20
2023-03-19T02:06:16.646Z,5.20
2023-03-19T02:08:43.691Z,5.20
2023-03-19T02:11:10.771Z,5.20
2023-03-19T02:13:37.776Z,5.20
2023-03-19T02:16:04.627Z,5.20
2023-03-19T02:18:31.893Z,5.20
2023-03-19T02:21:17.576Z,5.20
2023-03-19T02:24:09.970Z,5.20
2023-03-19T02:26:38.360Z,5.30
2023-03-19T02:29:05.142Z,5.30
2023-03-19T02:31:31.873Z,5.30
2023-03-19T02:34:04.669Z,5.30
2023-03-19T02:36:37.520Z,5.30
2023-03-19T02:39:08.649Z,5.30
2023-03-19T02:41:39.246Z,5.30
2023-03-19T02:44:07.389Z,5.30
2023-03-19T02:46:34.101Z,5.30
2023-03-19T02:49:00.667Z,6.00
2023-03-19T02:51:27.357Z,5.30
2023-03-19T02:53:54.046Z,5.30
2023-03-19T02:56:20.787Z,5.40
2023-03-19T02:58:47.737Z,5.30
2023-03-19T03:01:14.472Z,5.30
2023-03-19T03:03:41.716Z,5.30
2023-03-19T03:06:08.338Z,5.40
2023-03-19T03:08:36.618Z,5.40
2023-03-19T03:11:03.513Z,5.40
2023-03-19T03:13:30.121Z,5.50
2023-03-19T03:15:56.857Z,5.50
2023-03-19T03:18:23.523Z,5.50
2023-03-19T03:20:50.159Z,5.50
2023-03-19T03:23:17.177Z,5.50
2023-03-19T03:25:43.902Z,5.50
2023-03-19T03:28:10.675Z,5.40
2023-03-19T03:30:38.105Z,5.40
2023-03-19T03:33:05.009Z,5.40
2023-03-19T03:35:32.451Z,5.40
2023-03-19T03:37:59.139Z,5.40
2023-03-19T03:40:25.842Z,5.40
2023-03-19T03:42:52.678Z,5.50
2023-03-19T03:45:19.776Z,5.50
2023-03-19T03:47:47.374Z,5.50
2023-03-19T03:50:14.133Z,5.60
2023-03-19T03:52:42.084Z,5.60
2023-03-19T03:55:09.847Z,5.70
2023-03-19T03:57:36.659Z,5.70
2023-03-19T04:00:04.731Z,5.80
2023-03-19T04:02:31.646Z,5.80
2023-03-19T04:04:58.380Z,5.80
2023-03-19T04:07:25.072Z,5.90
2023-03-19T04:09:51.733Z,5.90
2023-03-19T04:12:18.459Z,5.90
2023-03-19T04:14:45.185Z,5.90
2023-03-19T04:17:12.152Z,5.90
2023-03-19T04:19:38.907Z,5.90
2023-03-19T04:22:07.899Z,5.90
2023-03-19T04:24:34.693Z,6.00
2023-03-19T04:27:01.433Z,6.00
2023-03-19T04:29:28.086Z,6.00
2023-03-19T04:31:54.852Z,6.00
2023-03-19T04:34:21.515Z,6.20
2023-03-19T04:36:48.916Z,6.10
2023-03-19T04:39:15.602Z,6.10
2023-03-19T04:41:42.337Z,6.20
2023-03-19T04:44:09.443Z,6.30
2023-03-19T04:46:36.351Z,6.30
2023-03-19T04:49:02.982Z,6.30
2023-03-19T04:51:29.658Z,6.30
2023-03-19T04:53:56.288Z,6.30
2023-03-19T04:56:22.962Z,6.30
2023-03-19T04:58:49.622Z,6.30
2023-03-19T05:01:17.110Z,6.30
2023-03-19T05:03:43.885Z,6.30
2023-03-19T05:06:11.696Z,6.30
2023-03-19T05:08:38.598Z,6.30
2023-03-19T05:11:05.327Z,6.30
2023-03-19T05:13:32.023Z,6.30
2023-03-19T05:15:59.397Z,6.30
2023-03-19T05:18:26.122Z,6.40
2023-03-19T05:20:53.308Z,6.40
2023-03-19T05:23:20.005Z,6.40
2023-03-19T05:25:47.718Z,6.40
2023-03-19T05:28:14.840Z,6.40
2023-03-19T05:30:41.701Z,6.50
2023-03-19T05:33:08.643Z,6.50
2023-03-19T05:35:36.686Z,6.50
2023-03-19T05:38:03.453Z,6.50
2023-03-19T05:40:30.184Z,6.50
2023-03-19T05:42:56.882Z,6.50
2023-03-19T05:45:23.589Z,6.60
2023-03-19T05:47:50.261Z,6.60
2023-03-19T05:50:18.725Z,6.70
2023-03-19T05:52:45.502Z,6.70
2023-03-19T05:55:12.199Z,6.70
2023-03-19T05:57:41.139Z,6.80
2023-03-19T06:00:09.107Z,4.60
2023-03-19T06:02:36.869Z,6.90
2023-03-19T06:05:04.919Z,7.10
2023-03-19T06:07:31.918Z,7.20
2023-03-19T06:09:58.668Z,7.30
2023-03-19T06:12:25.359Z,7.30
2023-03-19T06:14:52.072Z,7.40
2023-03-19T06:17:18.819Z,7.50
2023-03-19T06:19:45.487Z,7.60
2023-03-19T06:22:12.399Z,7.70
2023-03-19T06:24:39.121Z,7.80
2023-03-19T06:27:06.152Z,7.80
2023-03-19T06:29:32.834Z,7.90
2023-03-19T06:31:59.794Z,8.00
2023-03-19T06:34:26.508Z,8.10
2023-03-19T06:36:53.841Z,8.20
2023-03-19T06:39:21.109Z,8.20
2023-03-19T06:41:47.908Z,8.30
2023-03-19T06:44:14.876Z,8.30
2023-03-19T06:46:41.715Z,8.30
2023-03-19T06:49:08.368Z,8.40
2023-03-19T06:51:35.060Z,8.50
2023-03-19T06:54:02.041Z,8.60
2023-03-19T06:56:29.434Z,8.70
2023-03-19T06:58:56.520Z,8.80
2023-03-19T07:01:23.884Z,8.90
2023-03-19T07:03:51.489Z,9.10
2023-03-19T07:06:18.257Z,9.20
2023-03-19T07:08:46.535Z,9.30
2023-03-19T07:11:14.390Z,9.40
2023-03-19T07:13:41.150Z,9.50
2023-03-19T07:16:08.592Z,9.60
2023-03-19T07:18:35.634Z,9.60
2023-03-19T07:21:02.362Z,9.70
2023-03-19T07:23:28.949Z,9.80
2023-03-19T07:25:55.634Z,9.80
2023-03-19T07:28:22.982Z,9.90
2023-03-19T07:30:53.289Z,10.00
2023-03-19T07:33:21.123Z,10.10
2023-03-19T07:35:48.740Z,10.20
2023-03-19T07:38:15.747Z,10.30
2023-03-19T07:40:51.310Z,10.30
2023-03-19T07:43:26.111Z,10.30
2023-03-19T07:45:53.027Z,10.30
2023-03-19T07:48:19.818Z,10.20
2023-03-19T07:50:50.370Z,10.20
2023-03-19T07:53:17.090Z,10.10
2023-03-19T07:55:43.818Z,10.10
2023-03-19T07:58:11.012Z,10.10
2023-03-19T08:00:37.762Z,10.00
2023-03-19T08:03:04.684Z,10.00
2023-03-19T08:05:31.303Z,9.90
2023-03-19T08:07:57.948Z,9.80
2023-03-19T08:10:24.696Z,9.80
2023-03-19T08:12:51.375Z,9.80
2023-03-19T08:15:18.267Z,9.80
2023-03-19T08:17:44.903Z,9.70
2023-03-19T08:20:16.864Z,9.70
2023-03-19T08:22:43.747Z,9.70
2023-03-19T08:25:11.247Z,9.70
2023-03-19T08:27:38.215Z,9.70
2023-03-19T08:30:07.312Z,9.70
2023-03-19T08:32:34.453Z,9.80
2023-03-19T08:35:01.256Z,9.80
2023-03-19T08:37:28.266Z,9.80
2023-03-19T08:39:55.195Z,9.80
2023-03-19T08:42:22.716Z,9.80
2023-03-19T08:44:50.429Z,9.80
2023-03-19T08:47:17.148Z,9.80
2023-03-19T08:49:43.933Z,9.70
2023-03-19T08:52:10.644Z,9.70
2023-03-19T08:54:37.542Z,9.70
2023-03-19T08:57:04.237Z,9.70
2023-03-19T08:59:34.100Z,9.70
2023-03-19T09:02:01.667Z,9.80
2023-03-19T09:04:28.517Z,9.80
2023-03-19T09:06:55.848Z,9.90
2023-03-19T09:09:24.668Z,10.00
2023-03-19T09:11:51.410Z,10.20
2023-03-19T09:14:20.063Z,10.50
2023-03-19T09:16:46.893Z,10.60
2023-03-19T09:19:14.121Z,10.70
2023-03-19T09:21:41.263Z,10.80
2023-03-19T09:24:08.044Z,10.80
2023-03-19T09:26:35.309Z,10.70
2023-03-19T09:29:03.499Z,10.50
2023-03-19T09:31:30.738Z,10.50
2023-03-19T09:33:57.481Z,10.50
2023-03-19T09:36:24.270Z,10.50
2023-03-19T09:38:54.965Z,10.50
2023-03-19T09:41:34.118Z,10.60
2023-03-19T09:44:11.895Z,10.70
2023-03-19T09:46:53.633Z,10.70
2023-03-19T09:49:30.008Z,10.90
2023-03-19T09:52:03.444Z,10.90
2023-03-19T09:54:33.405Z,10.90
2023-03-19T09:57:01.144Z,10.80
2023-03-19T09:59:29.135Z,10.80
2023-03-19T10:02:06.905Z,10.70
2023-03-19T10:04:44.592Z,10.70
2023-03-19T10:07:24.351Z,10.70
2023-03-19T10:09:55.537Z,10.80
2023-03-19T10:12:48.662Z,10.80
2023-03-19T10:15:20.781Z,10.80
2023-03-19T10:17:56.978Z,10.70
2023-03-19T10:20:37.108Z,10.70
2023-03-19T10:23:30.348Z,10.80
2023-03-19T10:25:59.939Z,10.90
2023-03-19T10:28:29.412Z,11.10
2023-03-19T10:31:02.739Z,11.30
2023-03-19T10:33:44.727Z,11.40
2023-03-19T10:36:14.928Z,11.60
2023-03-19T10:38:44.205Z,11.60
2023-03-19T10:41:38.115Z,11.70
2023-03-19T10:44:14.633Z,11.90
2023-03-19T10:46:41.781Z,12.00
2023-03-19T10:49:13.175Z,12.10
2023-03-19T10:51:42.627Z,12.10
2023-03-19T10:54:28.908Z,12.20
2023-03-19T10:56:57.640Z,12.30
2023-03-19T10:59:30.847Z,12.50
2023-03-19T11:02:02.582Z,12.60
2023-03-19T11:04:29.890Z,12.70
2023-03-19T11:07:03.695Z,12.80
2023-03-19T11:09:47.002Z,13.40
2023-03-19T11:12:35.225Z,15.40
2023-03-19T11:15:03.994Z,13.80
2023-03-19T11:17:50.510Z,14.20
2023-03-19T11:20:23.705Z,14.90
2023-03-19T11:22:52.502Z,15.30
2023-03-19T11:25:37.785Z,15.60
2023-03-19T11:28:26.329Z,15.60
2023-03-19T11:31:06.455Z,15.70
2023-03-19T11:33:54.087Z,15.40
2023-03-19T11:36:51.159Z,13.60
2023-03-19T11:39:23.956Z,16.20
2023-03-19T11:42:27.042Z,15.90
2023-03-19T11:45:02.647Z,15.70
2023-03-19T11:47:35.330Z,15.80
2023-03-19T11:50:18.623Z,15.80
2023-03-19T11:53:10.902Z,16.00
2023-03-19T11:55:43.567Z,17.10
2023-03-19T11:58:32.583Z,18.20
2023-03-19T12:01:16.031Z,18.80
2023-03-19T12:04:02.628Z,19.00
2023-03-19T12:06:55.900Z,18.20
2023-03-19T12:09:52.119Z,18.20
2023-03-19T12:12:18.796Z,18.60
2023-03-19T12:15:05.452Z,19.30
2023-03-19T12:17:53.089Z,19.50
2023-03-19T12:20:31.159Z,19.70
2023-03-19T12:23:12.491Z,19.90
2023-03-19T12:26:05.167Z,20.40
2023-03-19T12:28:36.233Z,21.40
2023-03-19T12:31:42.770Z,23.00
2023-03-19T12:34:29.881Z,24.10
2023-03-19T12:36:59.724Z,22.30
2023-03-19T12:39:31.783Z,21.70
2023-03-19T12:42:00.825Z,22.60
2023-03-19T12:44:34.205Z,23.30
2023-03-19T12:47:14.543Z,24.40
2023-03-19T12:49:44.572Z,25.30
2023-03-19T12:52:27.244Z,25.50
2023-03-19T12:54:59.705Z,24.60
2023-03-19T12:57:35.822Z,24.30
2023-03-19T13:00:42.322Z,24.70
2023-03-19T13:03:18.833Z,25.60
2023-03-19T13:05:47.369Z,25.50
2023-03-19T13:08:38.227Z,24.50
2023-03-19T13:11:12.720Z,25.50
2023-03-19T13:13:49.065Z,26.50
2023-03-19T13:16:34.727Z,26.90
2023-03-19T13:19:18.080Z,26.60
2023-03-19T13:21:48.537Z,26.10
2023-03-19T13:24:22.201Z,25.20
2023-03-19T13:26:51.040Z,25.30
2023-03-19T13:29:22.047Z,25.70
2023-03-19T13:31:49.835Z,26.60
2023-03-19T13:34:17.621Z,27.50
2023-03-19T13:36:48.351Z,28.00
2023-03-19T13:39:18.652Z,27.60
2023-03-19T13:41:51.200Z,26.80
2023-03-19T13:44:33.590Z,26.90
2023-03-19T13:47:32.448Z,27.00
2023-03-19T13:50:12.526Z,26.50
2023-03-19T13:52:48.962Z,24.90
2023-03-19T13:55:44.586Z,23.80
2023-03-19T13:58:34.365Z,23.50
2023-03-19T14:01:01.226Z,23.60
2023-03-19T14:03:33.028Z,23.30
2023-03-19T14:06:00.266Z,23.80
2023-03-19T14:08:33.831Z,24.80
2023-03-19T14:11:02.688Z,25.80
2023-03-19T14:13:31.678Z,26.40
2023-03-19T14:16:07.701Z,26.20
2023-03-19T14:18:40.235Z,25.70
2023-03-19T14:21:16.025Z,25.30
2023-03-19T14:23:53.232Z,25.50
2023-03-19T14:26:24.236Z,25.30
2023-03-19T14:29:02.666Z,25.30
2023-03-19T14:31:33.854Z,25.00
2023-03-19T14:34:06.526Z,24.30
2023-03-19T14:36:38.499Z,23.50
2023-03-19T14:39:18.812Z,23.40
2023-03-19T14:41:49.039Z,23.80
2023-03-19T14:44:55.659Z,24.20
2023-03-19T14:47:41.052Z,25.20
2023-03-19T14:50:47.570Z,25.60
2023-03-19T14:53:22.209Z,25.50
2023-03-19T14:55:51.623Z,23.20
2023-03-19T14:58:20.866Z,24.30
2023-03-19T15:00:51.512Z,24.60
2023-03-19T15:03:20.913Z,25.60
2023-03-19T15:05:50.443Z,26.30
2023-03-19T15:08:22.329Z,26.50
2023-03-19T15:11:09.098Z,25.80
2023-03-19T15:13:58.421Z,24.10
2023-03-19T15:17:05.032Z,23.60
2023-03-19T15:19:32.635Z,24.00
2023-03-19T15:22:13.103Z,23.40
2023-03-19T15:24:39.889Z,22.60
2023-03-19T15:27:27.100Z,22.20
2023-03-19T15:29:54.265Z,22.50
2023-03-19T15:33:09.096Z,23.50
2023-03-19T15:35:31.891Z,24.40
2023-03-19T15:38:01.148Z,24.90
2023-03-19T15:40:31.086Z,25.50
2023-03-19T15:43:02.173Z,25.50
2023-03-19T15:45:31.303Z,25.10
2023-03-19T15:48:10.801Z,24.00
2023-03-19T15:50:42.670Z,22.70
2023-03-19T15:53:14.052Z,21.80
2023-03-19T15:55:41.097Z,20.90
2023-03-19T15:58:14.799Z,20.20
2023-03-19T16:00:42.794Z,19.40
2023-03-19T16:03:17.252Z,18.80
2023-03-19T16:05:44.145Z,18.60
2023-03-19T16:08:19.860Z,18.90
2023-03-19T16:10:47.443Z,19.30
2023-03-19T16:13:26.673Z,19.30
2023-03-19T16:16:00.360Z,19.00
2023-03-19T16:18:29.832Z,18.30
2023-03-19T16:21:18.011Z,17.60
2023-03-19T16:23:53.321Z,16.90
2023-03-19T16:26:41.679Z,16.50
2023-03-19T16:29:27.623Z,16.10
2023-03-19T16:32:01.670Z,15.80
2023-03-19T16:34:46.309Z,15.50
2023-03-19T16:37:40.650Z,15.30
2023-03-19T16:40:16.533Z,15.10
2023-03-19T16:42:43.967Z,14.80
2023-03-19T16:45:28.908Z,14.60
2023-03-19T16:47:57.826Z,14.50
2023-03-19T16:50:33.179Z,14.30
2023-03-19T16:53:02.665Z,14.20
2023-03-19T16:55:33.276Z,14.00
2023-03-19T16:58:04.195Z,13.80
2023-03-19T17:00:32.263Z,13.60
2023-03-19T17:03:00.453Z,13.50
2023-03-19T17:05:28.978Z,13.20
2023-03-19T17:07:56.238Z,13.10
2023-03-19T17:10:26.638Z,13.00
2023-03-19T17:12:55.344Z,12.80
2023-03-19T17:15:39.895Z,12.70
2023-03-19T17:18:21.804Z,12.50
2023-03-19T17:20:55.418Z,12.30
2023-03-19T17:23:26.728Z,12.20
2023-03-19T17:25:54.594Z,12.00
2023-03-19T17:28:21.575Z,11.90
2023-03-19T17:30:49.106Z,11.80
2023-03-19T17:33:27.042Z,11.80
2023-03-19T17:35:55.138Z,11.80
2023-03-19T17:38:25.668Z,11.70
2023-03-19T17:40:52.314Z,11.70
2023-03-19T17:43:19.001Z,11.60
2023-03-19T17:45:48.353Z,11.50
2023-03-19T17:48:21.558Z,11.50
2023-03-19T17:50:48.933Z,11.40
2023-03-19T17:53:18.403Z,11.40
2023-03-19T17:55:46.814Z,9.00
2023-03-19T17:58:20.862Z,11.40
2023-03-19T18:00:49.186Z,11.60
2023-03-19T18:03:19.111Z,11.70
2023-03-19T18:05:45.848Z,11.80
2023-03-19T18:08:16.418Z,11.90
2023-03-19T18:10:43.752Z,11.90
2023-03-19T18:13:11.284Z,11.90
2023-03-19T18:15:40.222Z,11.90
2023-03-19T18:18:11.078Z,11.90
2023-03-19T18:20:39.605Z,11.90
2023-03-19T18:23:06.639Z,11.90
2023-03-19T18:25:35.580Z,11.80
2023-03-19T18:28:04.541Z,11.80
2023-03-19T18:30:33.814Z,11.70
2023-03-19T18:33:04.087Z,11.70
2023-03-19T18:35:34.237Z,11.60
2023-03-19T18:38:00.778Z,11.30
2023-03-19T18:40:30.200Z,11.10
2023-03-19T18:42:57.064Z,10.90
2023-03-19T18:45:28.766Z,10.60
2023-03-19T18:47:56.888Z,10.40
2023-03-19T18:50:29.148Z,10.30
2023-03-19T18:52:56.266Z,10.10
2023-03-19T18:55:28.948Z,10.00
2023-03-19T18:58:02.199Z,9.90
2023-03-19T19:00:33.743Z,9.90
2023-03-19T19:03:02.732Z,9.80
2023-03-19T19:05:31.797Z,9.80
2023-03-19T19:08:00.730Z,9.80
2023-03-19T19:10:33.163Z,9.80
2023-03-19T19:13:00.890Z,9.80
2023-03-19T19:15:32.326Z,9.80
2023-03-19T19:17:59.492Z,9.70
2023-03-19T19:20:28.263Z,9.70
2023-03-19T19:22:55.750Z,9.60
2023-03-19T19:25:26.728Z,9.50
2023-03-19T19:27:59.822Z,9.70
2023-03-19T19:30:27.103Z,9.50
2023-03-19T19:32:53.945Z,9.40
2023-03-19T19:35:24.612Z,9.40
2023-03-19T19:37:52.069Z,9.40
2023-03-19T19:40:21.931Z,9.40
2023-03-19T19:42:52.611Z,9.40
2023-03-19T19:45:31.753Z,9.40
2023-03-19T19:47:59.431Z,9.40
2023-03-19T19:50:27.862Z,9.40
2023-03-19T19:52:55.835Z,9.40
2023-03-19T19:55:24.537Z,9.40
2023-03-19T19:57:52.609Z,9.40
2023-03-19T20:00:22.474Z,9.40
2023-03-19T20:02:50.331Z,9.40
2023-03-19T20:05:21.715Z,9.40
2023-03-19T20:07:49.790Z,9.40
2023-03-19T20:10:16.921Z,9.30
2023-03-19T20:12:46.010Z,9.40
2023-03-19T20:15:16.204Z,9.40
2023-03-19T20:17:43.096Z,9.40
2023-03-19T20:20:15.792Z,9.30
2023-03-19T20:22:43.751Z,9.30
2023-03-19T20:25:11.258Z,9.30
2023-03-19T20:27:38.183Z,9.30
2023-03-19T20:30:06.504Z,9.30
2023-03-19T20:32:37.255Z,9.30
2023-03-19T20:35:07.010Z,9.30
2023-03-19T20:37:33.689Z,9.20
2023-03-19T20:40:00.447Z,9.20
2023-03-19T20:42:29.867Z,9.00
2023-03-19T20:44:58.019Z,9.00
2023-03-19T20:47:25.735Z,9.00
2023-03-19T20:49:53.283Z,9.00
2023-03-19T20:52:20.326Z,9.00
2023-03-19T20:54:50.122Z,9.00
2023-03-19T20:57:22.527Z,9.00
2023-03-19T20:59:49.376Z,9.00
2023-03-19T21:02:18.631Z,9.00
2023-03-19T21:04:46.443Z,9.00
2023-03-19T21:07:33.612Z,9.00
2023-03-19T21:10:03.557Z,8.90
2023-03-19T21:12:32.113Z,8.80
2023-03-19T21:15:00.555Z,7.30
2023-03-19T21:17:28.561Z,9.00
2023-03-19T21:19:56.671Z,9.00
2023-03-19T21:22:28.371Z,9.00
2023-03-19T21:25:04.428Z,8.90
2023-03-19T21:27:33.931Z,8.90
2023-03-19T21:30:00.741Z,8.90
2023-03-19T21:32:27.904Z,8.80
2023-03-19T21:34:54.679Z,8.80
2023-03-19T21:37:21.377Z,8.80
2023-03-19T21:39:48.070Z,8.80
2023-03-19T21:42:20.450Z,8.80
2023-03-19T21:44:48.020Z,8.70
2023-03-19T21:47:21.384Z,8.70
2023-03-19T21:49:48.456Z,8.70
2023-03-19T21:52:18.252Z,8.70
2023-03-19T21:54:45.162Z,8.70
2023-03-19T21:57:14.337Z,8.60
2023-03-19T21:59:42.754Z,8.60
2023-03-19T22:02:20.203Z,8.60
2023-03-19T22:04:46.886Z,8.60
2023-03-19T22:07:13.828Z,8.60
2023-03-19T22:09:42.604Z,8.50
2023-03-19T22:12:25.865Z,8.50
2023-03-19T22:14:52.847Z,8.50
2023-03-19T22:17:20.837Z,8.50
2023-03-19T22:19:47.518Z,8.50
2023-03-19T22:22:14.237Z,8.40
2023-03-19T22:24:41.099Z,8.40
2023-03-19T22:27:16.189Z,8.30
2023-03-19T22:29:44.863Z,8.30
2023-03-19T22:32:17.527Z,8.20
2023-03-19T22:34:44.756Z,8.10
2023-03-19T22:37:29.749Z,8.00
2023-03-19T22:39:56.785Z,8.00
2023-03-19T22:42:26.235Z,7.90
2023-03-19T22:44:54.550Z,7.80
2023-03-19T22:47:23.811Z,7.70
2023-03-19T22:49:51.062Z,7.70
2023-03-19T22:52:18.179Z,7.60
2023-03-19T22:54:44.879Z,7.60
2023-03-19T22:57:14.854Z,7.70
2023-03-19T22:59:42.816Z,7.70
2023-03-19T23:02:13.971Z,7.70
2023-03-19T23:04:41.394Z,7.80
2023-03-19T23:07:12.094Z,7.80
2023-03-19T23:09:40.474Z,7.80
2023-03-19T23:14:34.390Z,7.70
2023-03-19T23:17:04.081Z,7.60
2023-03-19T23:19:34.348Z,7.60
2023-03-19T23:22:03.258Z,7.60
2023-03-19T23:24:30.841Z,7.60
2023-03-19T23:26:59.245Z,7.60
2023-03-19T23:29:40.932Z,7.60
2023-03-19T23:32:11.304Z,7.60
2023-03-19T23:34:56.257Z,7.60
2023-03-19T23:37:24.300Z,7.60
2023-03-19T23:39:51.027Z,7.60
2023-03-19T23:42:27.616Z,7.60
2023-03-19T23:44:58.321Z,7.60
2023-03-19T23:47:25.367Z,7.60
2023-03-19T23:49:52.100Z,7.60
2023-03-19T23:52:18.843Z,7.60
2023-03-19T23:54:45.879Z,7.60
2023-03-19T23:57:15.549Z,7.50
2023-03-19T23:59:44.245Z,7.50
